sensor_id;sensor_type;location;lat;lon;timestamp;pressure;altitude;pressure_sealevel;temperature;humidity
1371;BME280;14306;49.942;11.570;2024-03-25T00:01:22;96422.84;;;8.18;100.00
1371;BME280;14306;49.942;11.570;2024-03-25T00:02:55;96416.25;;;8.32;100.00
1371;BME280;14306;49.942;11.570;2024-03-25T00:04:28;96414.47;;;8.28;100.00
1371;BME280;14306;49.942;11.570;2024-03-25T00:06:00;96415.59;;;8.27;100.00
1371;BME280;14306;49.942;11.570;2024-03-25T00:07:33;96408.22;;;8.10;100.00
1371;BME280;14306;49.942;11.570;2024-03-25T00:09:06;96407.28;;;8.88;100.00
1371;BME280;14306;49.942;11.570;2024-03-25T00:10:39;96410.78;;;9.22;100.00
1371;BME280;14306;49.942;11.570;2024-03-25T00:12:12;96411.72;;;9.09;100.00
1371;BME280;14306;49.942;11.570;2024-03-25T00:13:46;96414.25;;;9.23;100.00
1371;BME280;14306;49.942;11.570;2024-03-25T00:15:18;96433.94;;;8.72;100.00
1371;BME280;14306;49.942;11.570;2024-03-25T00:16:51;96419.81;;;8.67;100.00
1371;BME280;14306;49.942;11.570;2024-03-25T00:18:24;96424.72;;;8.82;100.00
1371;BME280;14306;49.942;11.570;2024-03-25T00:19:57;96427.13;;;9.00;100.00
1371;BME280;14306;49.942;11.570;2024-03-25T00:21:29;96427.13;;;9.26;100.00
1371;BME280;14306;49.942;11.570;2024-03-25T00:23:03;96427.88;;;9.52;100.00
1371;BME280;14306;49.942;11.570;2024-03-25T00:24:35;96430.31;;;8.94;100.00
1371;BME280;14306;49.942;11.570;2024-03-25T00:26:07;96440.31;;;9.27;100.00
1371;BME280;14306;49.942;11.570;2024-03-25T00:27:40;96419.03;;;9.34;100.00
1371;BME280;14306;49.942;11.570;2024-03-25T00:29:14;96422.06;;;9.07;100.00
1371;BME280;14306;49.942;11.570;2024-03-25T00:30:46;96429.03;;;8.91;100.00
1371;BME280;14306;49.942;11.570;2024-03-25T00:32:19;96424.09;;;9.27;100.00
1371;BME280;14306;49.942;11.570;2024-03-25T00:33:51;96430.31;;;9.11;100.00
1371;BME280;14306;49.942;11.570;2024-03-25T00:35:24;96420.63;;;9.01;100.00
1371;BME280;14306;49.942;11.570;2024-03-25T00:36:57;96435.06;;;8.97;100.00
1371;BME280;14306;49.942;11.570;2024-03-25T00:38:29;96433.47;;;9.38;100.00
1371;BME280;14306;49.942;11.570;2024-03-25T00:40:01;96446.00;;;9.43;100.00
1371;BME280;14306;49.942;11.570;2024-03-25T00:41:36;96424.91;;;9.02;100.00
1371;BME280;14306;49.942;11.570;2024-03-25T00:43:08;96433.31;;;8.75;100.00
1371;BME280;14306;49.942;11.570;2024-03-25T00:44:41;96429.84;;;9.09;100.00
1371;BME280;14306;49.942;11.570;2024-03-25T00:46:15;96426.81;;;9.02;100.00
1371;BME280;14306;49.942;11.570;2024-03-25T00:47:47;96430.91;;;9.42;100.00
1371;BME280;14306;49.942;11.570;2024-03-25T00:49:21;96431.09;;;9.28;100.00
1371;BME280;14306;49.942;11.570;2024-03-25T00:50:53;96427.13;;;9.26;100.00
1371;BME280;14306;49.942;11.570;2024-03-25T00:52:25;96432.16;;;9.53;100.00
1371;BME280;14306;49.942;11.570;2024-03-25T00:54:01;96426.81;;;9.36;100.00
1371;BME280;14306;49.942;11.570;2024-03-25T00:55:33;96434.06;;;9.61;100.00
1371;BME280;14306;49.942;11.570;2024-03-25T00:57:07;96430.59;;;8.58;100.00
1371;BME280;14306;49.942;11.570;2024-03-25T00:58:40;96429.84;;;9.09;100.00
1371;BME280;14306;49.942;11.570;2024-03-25T01:00:14;96424.28;;;9.22;100.00
1371;BME280;14306;49.942;11.570;2024-03-25T01:01:47;96436.50;;;9.11;100.00
1371;BME280;14306;49.942;11.570;2024-03-25T01:03:19;96427.06;;;9.60;100.00
1371;BME280;14306;49.942;11.570;2024-03-25T01:04:51;96430.91;;;9.42;100.00
1371;BME280;14306;49.942;11.570;2024-03-25T01:06:26;96435.22;;;8.75;100.00
1371;BME280;14306;49.942;11.570;2024-03-25T01:07:58;96439.28;;;9.66;100.00
1371;BME280;14306;49.942;11.570;2024-03-25T01:09:30;96432.53;;;9.17;100.00
1371;BME280;14306;49.942;11.570;2024-03-25T01:11:03;96433.16;;;8.89;100.00
1371;BME280;14306;49.942;11.570;2024-03-25T01:12:37;96438.41;;;9.19;100.00
1371;BME280;14306;49.942;11.570;2024-03-25T01:14:09;96439.38;;;9.32;100.00
1371;BME280;14306;49.942;11.570;2024-03-25T01:15:43;96442.69;;;9.20;100.00
1371;BME280;14306;49.942;11.570;2024-03-25T01:17:15;96438.38;;;9.53;100.00
1371;BME280;14306;49.942;11.570;2024-03-25T01:18:48;96438.25;;;8.99;100.00
1371;BME280;14306;49.942;11.570;2024-03-25T01:20:21;96443.16;;;8.97;100.00
1371;BME280;14306;49.942;11.570;2024-03-25T01:21:53;96451.44;;;8.92;100.00
1371;BME280;14306;49.942;11.570;2024-03-25T01:23:26;96445.38;;;8.78;100.00
1371;BME280;14306;49.942;11.570;2024-03-25T01:24:58;96442.72;;;9.03;100.00
1371;BME280;14306;49.942;11.570;2024-03-25T01:26:31;96437.25;;;8.13;100.00
1371;BME280;14306;49.942;11.570;2024-03-25T01:28:04;96443.06;;;8.29;100.00
1371;BME280;14306;49.942;11.570;2024-03-25T01:29:36;96440.28;;;8.68;100.00
1371;BME280;14306;49.942;11.570;2024-03-25T01:31:10;96433.81;;;9.11;100.00
1371;BME280;14306;49.942;11.570;2024-03-25T01:32:43;96441.91;;;9.20;100.00
1371;BME280;14306;49.942;11.570;2024-03-25T01:34:15;96435.53;;;9.24;100.00
1371;BME280;14306;49.942;11.570;2024-03-25T01:35:48;96440.63;;;8.83;100.00
1371;BME280;14306;49.942;11.570;2024-03-25T01:37:21;96439.19;;;8.69;100.00
1371;BME280;14306;49.942;11.570;2024-03-25T01:38:54;96435.03;;;8.71;100.00
1371;BME280;14306;49.942;11.570;2024-03-25T01:40:26;96449.06;;;9.24;100.00
1371;BME280;14306;49.942;11.570;2024-03-25T01:41:58;96439.84;;;9.00;100.00
1371;BME280;14306;49.942;11.570;2024-03-25T01:43:31;96449.94;;;8.60;100.00
1371;BME280;14306;49.942;11.570;2024-03-25T01:45:04;96452.06;;;8.80;100.00
1371;BME280;14306;49.942;11.570;2024-03-25T01:46:38;96447.47;;;8.98;100.00
1371;BME280;14306;49.942;11.570;2024-03-25T01:48:15;96435.03;;;8.54;100.00
1371;BME280;14306;49.942;11.570;2024-03-25T01:49:47;96463.34;;;9.16;100.00
1371;BME280;14306;49.942;11.570;2024-03-25T01:51:21;96455.72;;;9.01;100.00
1371;BME280;14306;49.942;11.570;2024-03-25T01:52:56;96453.00;;;8.76;100.00
1371;BME280;14306;49.942;11.570;2024-03-25T01:54:29;96458.59;;;9.22;100.00
1371;BME280;14306;49.942;11.570;2024-03-25T01:56:03;96465.09;;;9.29;100.00
1371;BME280;14306;49.942;11.570;2024-03-25T01:57:35;96458.56;;;9.47;100.00
1371;BME280;14306;49.942;11.570;2024-03-25T01:59:10;96462.72;;;9.36;100.00
1371;BME280;14306;49.942;11.570;2024-03-25T02:00:43;96468.13;;;9.36;100.00
1371;BME280;14306;49.942;11.570;2024-03-25T02:02:17;96445.50;;;9.66;100.00
1371;BME280;14306;49.942;11.570;2024-03-25T02:03:49;96464.47;;;9.24;100.00
1371;BME280;14306;49.942;11.570;2024-03-25T02:05:22;96462.03;;;9.65;100.00
1371;BME280;14306;49.942;11.570;2024-03-25T02:06:56;96459.38;;;9.14;100.00
1371;BME280;14306;49.942;11.570;2024-03-25T02:08:31;96459.06;;;8.90;100.00
1371;BME280;14306;49.942;11.570;2024-03-25T02:10:03;96460.38;;;8.36;100.00
1371;BME280;14306;49.942;11.570;2024-03-25T02:11:37;96466.38;;;8.98;100.00
1371;BME280;14306;49.942;11.570;2024-03-25T02:13:09;96453.84;;;9.02;100.00
1371;BME280;14306;49.942;11.570;2024-03-25T02:14:41;96467.78;;;9.29;100.00
1371;BME280;14306;49.942;11.570;2024-03-25T02:16:15;96459.53;;;9.17;100.00
1371;BME280;14306;49.942;11.570;2024-03-25T02:17:48;96459.00;;;8.64;100.00
1371;BME280;14306;49.942;11.570;2024-03-25T02:19:22;96465.91;;;9.13;100.00
1371;BME280;14306;49.942;11.570;2024-03-25T02:20:56;96469.69;;;9.12;100.00
1371;BME280;14306;49.942;11.570;2024-03-25T02:22:29;96467.78;;;9.46;100.00
1371;BME280;14306;49.942;11.570;2024-03-25T02:24:02;96470.56;;;9.92;100.00
1371;BME280;14306;49.942;11.570;2024-03-25T02:25:41;96470.16;;;9.56;100.00
1371;BME280;14306;49.942;11.570;2024-03-25T02:27:15;96461.91;;;9.19;100.00
1371;BME280;14306;49.942;11.570;2024-03-25T02:28:48;96461.28;;;8.96;100.00
1371;BME280;14306;49.942;11.570;2024-03-25T02:30:21;96466.16;;;8.69;100.00
1371;BME280;14306;49.942;11.570;2024-03-25T02:31:53;96459.84;;;8.90;100.00
1371;BME280;14306;49.942;11.570;2024-03-25T02:33:26;96464.91;;;8.83;100.00
1371;BME280;14306;49.942;11.570;2024-03-25T02:34:59;96471.31;;;9.13;100.00
1371;BME280;14306;49.942;11.570;2024-03-25T02:36:32;96474.47;;;9.23;100.00
1371;BME280;14306;49.942;11.570;2024-03-25T02:38:06;96470.34;;;9.26;100.00
1371;BME280;14306;49.942;11.570;2024-03-25T02:39:39;96475.25;;;9.58;100.00
1371;BME280;14306;49.942;11.570;2024-03-25T02:41:12;96481.03;;;8.49;100.00
1371;BME280;14306;49.942;11.570;2024-03-25T02:42:46;96470.78;;;8.77;100.00
1371;BME280;14306;49.942;11.570;2024-03-25T02:44:19;96468.97;;;8.47;100.00
1371;BME280;14306;49.942;11.570;2024-03-25T02:45:51;96473.94;;;8.62;100.00
1371;BME280;14306;49.942;11.570;2024-03-25T02:47:24;96476.84;;;8.91;100.00
1371;BME280;14306;49.942;11.570;2024-03-25T02:48:56;96482.53;;;9.66;100.00
1371;BME280;14306;49.942;11.570;2024-03-25T02:50:29;96480.75;;;9.87;100.00
1371;BME280;14306;49.942;11.570;2024-03-25T02:52:02;96477.56;;;9.85;100.00
1371;BME280;14306;49.942;11.570;2024-03-25T02:53:34;96490.69;;;9.57;100.00
1371;BME280;14306;49.942;11.570;2024-03-25T02:55:07;96480.97;;;8.97;100.00
1371;BME280;14306;49.942;11.570;2024-03-25T02:56:40;96494.34;;;9.27;100.00
1371;BME280;14306;49.942;11.570;2024-03-25T02:58:13;96487.97;;;9.40;100.00
1371;BME280;14306;49.942;11.570;2024-03-25T02:59:46;96485.44;;;9.44;100.00
1371;BME280;14306;49.942;11.570;2024-03-25T03:01:18;96491.66;;;9.36;100.00
1371;BME280;14306;49.942;11.570;2024-03-25T03:02:51;96492.09;;;9.72;100.00
1371;BME280;14306;49.942;11.570;2024-03-25T03:04:24;96498.63;;;9.11;100.00
1371;BME280;14306;49.942;11.570;2024-03-25T03:05:56;96501.97;;;9.25;100.00
1371;BME280;14306;49.942;11.570;2024-03-25T03:07:28;96503.56;;;9.26;100.00
1371;BME280;14306;49.942;11.570;2024-03-25T03:09:01;96501.91;;;8.74;100.00
1371;BME280;14306;49.942;11.570;2024-03-25T03:10:33;96498.44;;;8.82;100.00
1371;BME280;14306;49.942;11.570;2024-03-25T03:12:07;96492.81;;;8.62;100.00
1371;BME280;14306;49.942;11.570;2024-03-25T03:13:40;96497.94;;;8.72;100.00
1371;BME280;14306;49.942;11.570;2024-03-25T03:15:12;96505.09;;;8.85;100.00
1371;BME280;14306;49.942;11.570;2024-03-25T03:16:47;96496.78;;;8.64;100.00
1371;BME280;14306;49.942;11.570;2024-03-25T03:18:19;96507.38;;;9.25;100.00
1371;BME280;14306;49.942;11.570;2024-03-25T03:19:51;96502.63;;;9.48;100.00
1371;BME280;14306;49.942;11.570;2024-03-25T03:21:24;96505.44;;;9.77;100.00
1371;BME280;14306;49.942;11.570;2024-03-25T03:22:57;96504.34;;;9.18;100.00
1371;BME280;14306;49.942;11.570;2024-03-25T03:24:28;96506.75;;;9.11;100.00
1371;BME280;14306;49.942;11.570;2024-03-25T03:26:02;96495.56;;;8.79;100.00
1371;BME280;14306;49.942;11.570;2024-03-25T03:27:34;96507.63;;;8.81;100.00
1371;BME280;14306;49.942;11.570;2024-03-25T03:29:07;96503.03;;;8.90;100.00
1371;BME280;14306;49.942;11.570;2024-03-25T03:30:40;96490.19;;;9.21;100.00
1371;BME280;14306;49.942;11.570;2024-03-25T03:32:12;96507.06;;;9.27;100.00
1371;BME280;14306;49.942;11.570;2024-03-25T03:33:45;96507.69;;;9.32;100.00
1371;BME280;14306;49.942;11.570;2024-03-25T03:35:18;96523.75;;;9.63;100.00
1371;BME280;14306;49.942;11.570;2024-03-25T03:36:50;96514.97;;;9.06;100.00
1371;BME280;14306;49.942;11.570;2024-03-25T03:38:22;96523.44;;;9.64;100.00
1371;BME280;14306;49.942;11.570;2024-03-25T03:39:55;96520.72;;;9.22;100.00
1371;BME280;14306;49.942;11.570;2024-03-25T03:41:27;96523.72;;;9.03;100.00
1371;BME280;14306;49.942;11.570;2024-03-25T03:42:59;96520.09;;;9.25;100.00
1371;BME280;14306;49.942;11.570;2024-03-25T03:44:34;96521.38;;;9.36;100.00
1371;BME280;14306;49.942;11.570;2024-03-25T03:46:06;96522.94;;;9.54;100.00
1371;BME280;14306;49.942;11.570;2024-03-25T03:47:37;96523.91;;;9.32;100.00
1371;BME280;14306;49.942;11.570;2024-03-25T03:49:11;96529.31;;;9.32;100.00
1371;BME280;14306;49.942;11.570;2024-03-25T03:50:43;96525.03;;;9.40;100.00
1371;BME280;14306;49.942;11.570;2024-03-25T03:52:16;96529.13;;;9.03;100.00
1371;BME280;14306;49.942;11.570;2024-03-25T03:53:49;96531.75;;;8.69;100.00
1371;BME280;14306;49.942;11.570;2024-03-25T03:55:21;96530.41;;;9.31;100.00
1371;BME280;14306;49.942;11.570;2024-03-25T03:56:53;96532.47;;;9.09;100.00
1371;BME280;14306;49.942;11.570;2024-03-25T03:58:26;96544.44;;;8.69;100.00
1371;BME280;14306;49.942;11.570;2024-03-25T03:59:59;96531.19;;;9.06;100.00
1371;BME280;14306;49.942;11.570;2024-03-25T04:01:32;96538.69;;;9.69;100.00
1371;BME280;14306;49.942;11.570;2024-03-25T04:03:04;96536.44;;;9.20;100.00
1371;BME280;14306;49.942;11.570;2024-03-25T04:04:37;96523.25;;;9.18;100.00
1371;BME280;14306;49.942;11.570;2024-03-25T04:06:12;96523.53;;;8.44;100.00
1371;BME280;14306;49.942;11.570;2024-03-25T04:07:45;96537.97;;;8.39;100.00
1371;BME280;14306;49.942;11.570;2024-03-25T04:09:17;96528.00;;;8.48;100.00
1371;BME280;14306;49.942;11.570;2024-03-25T04:10:50;96530.22;;;8.94;100.00
1371;BME280;14306;49.942;11.570;2024-03-25T04:12:22;96536.06;;;8.87;100.00
1371;BME280;14306;49.942;11.570;2024-03-25T04:13:54;96537.16;;;8.69;100.00
1371;BME280;14306;49.942;11.570;2024-03-25T04:15:29;96536.59;;;8.50;100.00
1371;BME280;14306;49.942;11.570;2024-03-25T04:17:04;96547.63;;;8.32;100.00
1371;BME280;14306;49.942;11.570;2024-03-25T04:18:36;96527.63;;;8.72;100.00
1371;BME280;14306;49.942;11.570;2024-03-25T04:20:11;96518.31;;;8.95;100.00
1371;BME280;14306;49.942;11.570;2024-03-25T04:21:43;96537.38;;;8.90;100.00
1371;BME280;14306;49.942;11.570;2024-03-25T04:23:15;96539.16;;;9.28;100.00
1371;BME280;14306;49.942;11.570;2024-03-25T04:24:48;96541.75;;;8.30;100.00
1371;BME280;14306;49.942;11.570;2024-03-25T04:26:20;96524.41;;;8.22;100.00
1371;BME280;14306;49.942;11.570;2024-03-25T04:27:54;96542.03;;;8.67;100.00
1371;BME280;14306;49.942;11.570;2024-03-25T04:29:26;96540.84;;;8.43;100.00
1371;BME280;14306;49.942;11.570;2024-03-25T04:31:02;96552.63;;;9.03;100.00
1371;BME280;14306;49.942;11.570;2024-03-25T04:32:35;96550.53;;;8.91;100.00
1371;BME280;14306;49.942;11.570;2024-03-25T04:34:07;96558.50;;;8.96;100.00
1371;BME280;14306;49.942;11.570;2024-03-25T04:35:41;96556.84;;;8.78;100.00
1371;BME280;14306;49.942;11.570;2024-03-25T04:37:14;96560.66;;;8.77;100.00
1371;BME280;14306;49.942;11.570;2024-03-25T04:38:46;96551.81;;;8.46;100.00
1371;BME280;14306;49.942;11.570;2024-03-25T04:40:19;96551.72;;;8.60;100.00
1371;BME280;14306;49.942;11.570;2024-03-25T04:41:51;96553.06;;;8.18;100.00
1371;BME280;14306;49.942;11.570;2024-03-25T04:43:23;96561.91;;;8.71;100.00
1371;BME280;14306;49.942;11.570;2024-03-25T04:44:55;96566.53;;;8.71;100.00
1371;BME280;14306;49.942;11.570;2024-03-25T04:46:29;96567.38;;;8.88;100.00
1371;BME280;14306;49.942;11.570;2024-03-25T04:48:01;96561.97;;;8.49;100.00
1371;BME280;14306;49.942;11.570;2024-03-25T04:49:33;96564.47;;;8.37;100.00
1371;BME280;14306;49.942;11.570;2024-03-25T04:51:05;96562.06;;;8.66;100.00
1371;BME280;14306;49.942;11.570;2024-03-25T04:52:38;96568.22;;;9.06;100.00
1371;BME280;14306;49.942;11.570;2024-03-25T04:54:10;96568.38;;;9.18;100.00
1371;BME280;14306;49.942;11.570;2024-03-25T04:55:42;96575.22;;;9.24;100.00
1371;BME280;14306;49.942;11.570;2024-03-25T04:57:14;96563.06;;;8.79;100.00
1371;BME280;14306;49.942;11.570;2024-03-25T04:58:46;96560.34;;;8.87;100.00
1371;BME280;14306;49.942;11.570;2024-03-25T05:00:19;96572.88;;;9.39;100.00
1371;BME280;14306;49.942;11.570;2024-03-25T05:01:52;96568.56;;;9.55;100.00
1371;BME280;14306;49.942;11.570;2024-03-25T05:03:25;96561.41;;;9.59;100.00
1371;BME280;14306;49.942;11.570;2024-03-25T05:04:57;96576.50;;;9.60;100.00
1371;BME280;14306;49.942;11.570;2024-03-25T05:06:29;96579.53;;;9.25;100.00
1371;BME280;14306;49.942;11.570;2024-03-25T05:08:01;96586.56;;;9.68;100.00
1371;BME280;14306;49.942;11.570;2024-03-25T05:09:34;96584.47;;;9.57;100.00
1371;BME280;14306;49.942;11.570;2024-03-25T05:11:06;96586.38;;;9.65;100.00
1371;BME280;14306;49.942;11.570;2024-03-25T05:12:38;96589.25;;;9.60;100.00
1371;BME280;14306;49.942;11.570;2024-03-25T05:14:10;96584.16;;;8.77;100.00
1371;BME280;14306;49.942;11.570;2024-03-25T05:15:49;96580.75;;;8.63;100.00
1371;BME280;14306;49.942;11.570;2024-03-25T05:17:23;96593.34;;;8.37;100.00
1371;BME280;14306;49.942;11.570;2024-03-25T05:18:55;96599.22;;;9.17;100.00
1371;BME280;14306;49.942;11.570;2024-03-25T05:20:27;96607.03;;;9.35;100.00
1371;BME280;14306;49.942;11.570;2024-03-25T05:21:59;96603.66;;;9.13;100.00
1371;BME280;14306;49.942;11.570;2024-03-25T05:23:32;96601.53;;;9.01;100.00
1371;BME280;14306;49.942;11.570;2024-03-25T05:25:04;96601.22;;;8.55;100.00
1371;BME280;14306;49.942;11.570;2024-03-25T05:26:36;96602.22;;;8.68;100.00
1371;BME280;14306;49.942;11.570;2024-03-25T05:28:09;96607.03;;;8.79;100.00
1371;BME280;14306;49.942;11.570;2024-03-25T05:29:41;96607.78;;;8.71;100.00
1371;BME280;14306;49.942;11.570;2024-03-25T05:31:13;96609.53;;;8.67;100.00
1371;BME280;14306;49.942;11.570;2024-03-25T05:32:47;96606.78;;;9.06;100.00
1371;BME280;14306;49.942;11.570;2024-03-25T05:34:19;96618.03;;;8.91;100.00
1371;BME280;14306;49.942;11.570;2024-03-25T05:35:51;96613.25;;;9.36;100.00
1371;BME280;14306;49.942;11.570;2024-03-25T05:37:23;96602.34;;;9.02;100.00
1371;BME280;14306;49.942;11.570;2024-03-25T05:38:55;96614.13;;;9.14;100.00
1371;BME280;14306;49.942;11.570;2024-03-25T05:40:28;96612.50;;;9.05;100.00
1371;BME280;14306;49.942;11.570;2024-03-25T05:42:00;96616.44;;;9.46;100.00
1371;BME280;14306;49.942;11.570;2024-03-25T05:43:32;96604.59;;;9.08;100.00
1371;BME280;14306;49.942;11.570;2024-03-25T05:45:05;96608.47;;;9.33;100.00
1371;BME280;14306;49.942;11.570;2024-03-25T05:46:38;96607.28;;;9.08;100.00
1371;BME280;14306;49.942;11.570;2024-03-25T05:48:11;96609.34;;;9.03;100.00
1371;BME280;14306;49.942;11.570;2024-03-25T05:49:46;96591.31;;;9.46;100.00
1371;BME280;14306;49.942;11.570;2024-03-25T05:51:18;96615.94;;;9.44;100.00
1371;BME280;14306;49.942;11.570;2024-03-25T05:52:51;96598.88;;;9.18;100.00
1371;BME280;14306;49.942;11.570;2024-03-25T05:54:23;96604.94;;;9.24;100.00
1371;BME280;14306;49.942;11.570;2024-03-25T05:55:55;96605.47;;;9.77;100.00
1371;BME280;14306;49.942;11.570;2024-03-25T05:57:28;96609.56;;;9.23;100.00
1371;BME280;14306;49.942;11.570;2024-03-25T05:59:00;96615.91;;;9.19;100.00
1371;BME280;14306;49.942;11.570;2024-03-25T06:00:32;96611.28;;;9.28;100.00
1371;BME280;14306;49.942;11.570;2024-03-25T06:02:04;96605.06;;;9.10;100.00
1371;BME280;14306;49.942;11.570;2024-03-25T06:03:38;96611.34;;;9.62;100.00
1371;BME280;14306;49.942;11.570;2024-03-25T06:05:10;96618.94;;;9.43;100.00
1371;BME280;14306;49.942;11.570;2024-03-25T06:06:42;96614.84;;;9.62;100.00
1371;BME280;14306;49.942;11.570;2024-03-25T06:08:15;96618.34;;;9.71;100.00
1371;BME280;14306;49.942;11.570;2024-03-25T06:09:48;96590.53;;;9.45;100.00
1371;BME280;14306;49.942;11.570;2024-03-25T06:11:20;96619.41;;;9.28;100.00
1371;BME280;14306;49.942;11.570;2024-03-25T06:12:52;96612.84;;;9.12;100.00
1371;BME280;14306;49.942;11.570;2024-03-25T06:14:24;96619.59;;;9.40;100.00
1371;BME280;14306;49.942;11.570;2024-03-25T06:15:57;96616.13;;;9.65;100.00
1371;BME280;14306;49.942;11.570;2024-03-25T06:17:29;96623.13;;;10.00;100.00
1371;BME280;14306;49.942;11.570;2024-03-25T06:19:02;96628.56;;;9.91;100.00
1371;BME280;14306;49.942;11.570;2024-03-25T06:20:35;96630.59;;;9.77;100.00
1371;BME280;14306;49.942;11.570;2024-03-25T06:22:07;96640.94;;;9.67;100.00
1371;BME280;14306;49.942;11.570;2024-03-25T06:23:39;96638.69;;;9.69;100.00
1371;BME280;14306;49.942;11.570;2024-03-25T06:25:11;96636.00;;;9.69;100.00
1371;BME280;14306;49.942;11.570;2024-03-25T06:26:43;96637.78;;;9.82;100.00
1371;BME280;14306;49.942;11.570;2024-03-25T06:28:16;96641.25;;;9.82;100.00
1371;BME280;14306;49.942;11.570;2024-03-25T06:29:48;96622.13;;;9.36;100.00
1371;BME280;14306;49.942;11.570;2024-03-25T06:31:21;96633.59;;;9.50;100.00
1371;BME280;14306;49.942;11.570;2024-03-25T06:33:11;96636.53;;;9.15;100.00
1371;BME280;14306;49.942;11.570;2024-03-25T06:35:04;96642.69;;;8.98;100.00
1371;BME280;14306;49.942;11.570;2024-03-25T06:36:36;96652.22;;;9.69;100.00
1371;BME280;14306;49.942;11.570;2024-03-25T06:38:08;96651.59;;;9.72;100.00
1371;BME280;14306;49.942;11.570;2024-03-25T06:39:40;96626.13;;;9.47;100.00
1371;BME280;14306;49.942;11.570;2024-03-25T06:41:13;96666.75;;;10.24;100.00
1371;BME280;14306;49.942;11.570;2024-03-25T06:42:45;96658.47;;;10.03;100.00
1371;BME280;14306;49.942;11.570;2024-03-25T06:44:17;96654.59;;;9.62;100.00
1371;BME280;14306;49.942;11.570;2024-03-25T06:45:50;96667.66;;;9.85;100.00
1371;BME280;14306;49.942;11.570;2024-03-25T06:47:22;96663.00;;;9.60;100.00
1371;BME280;14306;49.942;11.570;2024-03-25T06:48:54;96676.78;;;10.32;100.00
1371;BME280;14306;49.942;11.570;2024-03-25T06:50:28;96667.88;;;10.06;100.00
1371;BME280;14306;49.942;11.570;2024-03-25T06:52:00;96673.09;;;9.85;100.00
1371;BME280;14306;49.942;11.570;2024-03-25T06:53:33;96666.25;;;9.96;100.00
1371;BME280;14306;49.942;11.570;2024-03-25T06:55:05;96675.31;;;9.83;100.00
1371;BME280;14306;49.942;11.570;2024-03-25T06:56:38;96672.91;;;10.50;100.00
1371;BME280;14306;49.942;11.570;2024-03-25T06:58:10;96682.38;;;10.90;100.00
1371;BME280;14306;49.942;11.570;2024-03-25T06:59:42;96676.06;;;10.69;100.00
1371;BME280;14306;49.942;11.570;2024-03-25T07:01:14;96681.59;;;10.89;100.00
1371;BME280;14306;49.942;11.570;2024-03-25T07:02:47;96681.53;;;10.43;100.00
1371;BME280;14306;49.942;11.570;2024-03-25T07:04:19;96675.03;;;10.10;100.00
1371;BME280;14306;49.942;11.570;2024-03-25T07:05:53;96685.00;;;11.15;100.00
1371;BME280;14306;49.942;11.570;2024-03-25T07:07:25;96686.34;;;11.01;100.00
1371;BME280;14306;49.942;11.570;2024-03-25T07:08:57;96683.88;;;10.70;100.00
1371;BME280;14306;49.942;11.570;2024-03-25T07:10:29;96680.25;;;10.41;100.00
1371;BME280;14306;49.942;11.570;2024-03-25T07:12:01;96686.81;;;10.06;100.00
1371;BME280;14306;49.942;11.570;2024-03-25T07:13:33;96685.06;;;10.10;100.00
1371;BME280;14306;49.942;11.570;2024-03-25T07:15:06;96690.44;;;10.27;100.00
1371;BME280;14306;49.942;11.570;2024-03-25T07:16:38;96691.84;;;10.58;100.00
1371;BME280;14306;49.942;11.570;2024-03-25T07:18:11;96689.16;;;10.50;100.00
1371;BME280;14306;49.942;11.570;2024-03-25T07:19:43;96686.38;;;10.84;100.00
1371;BME280;14306;49.942;11.570;2024-03-25T07:21:17;96706.38;;;11.83;100.00
1371;BME280;14306;49.942;11.570;2024-03-25T07:22:49;96706.75;;;11.73;100.00
1371;BME280;14306;49.942;11.570;2024-03-25T07:24:21;96695.50;;;11.54;100.00
1371;BME280;14306;49.942;11.570;2024-03-25T07:25:54;96691.97;;;11.25;100.00
1371;BME280;14306;49.942;11.570;2024-03-25T07:27:26;96693.81;;;11.04;100.00
1371;BME280;14306;49.942;11.570;2024-03-25T07:28:59;96696.59;;;11.24;100.00
1371;BME280;14306;49.942;11.570;2024-03-25T07:30:31;96679.38;;;11.29;100.00
1371;BME280;14306;49.942;11.570;2024-03-25T07:32:03;96693.13;;;11.15;100.00
1371;BME280;14306;49.942;11.570;2024-03-25T07:33:36;96700.13;;;11.16;100.00
1371;BME280;14306;49.942;11.570;2024-03-25T07:35:08;96694.63;;;10.96;100.00
1371;BME280;14306;49.942;11.570;2024-03-25T07:36:42;96703.63;;;10.54;100.00
1371;BME280;14306;49.942;11.570;2024-03-25T07:38:15;96698.22;;;10.54;100.00
1371;BME280;14306;49.942;11.570;2024-03-25T07:39:47;96701.06;;;11.20;100.00
1371;BME280;14306;49.942;11.570;2024-03-25T07:41:19;96701.28;;;10.52;100.00
1371;BME280;14306;49.942;11.570;2024-03-25T07:42:51;96700.22;;;10.99;100.00
1371;BME280;14306;49.942;11.570;2024-03-25T07:44:24;96698.75;;;11.39;100.00
1371;BME280;14306;49.942;11.570;2024-03-25T07:45:56;96705.47;;;10.96;100.00
1371;BME280;14306;49.942;11.570;2024-03-25T07:47:28;96707.56;;;11.74;100.00
1371;BME280;14306;49.942;11.570;2024-03-25T07:49:00;96705.13;;;11.43;100.00
1371;BME280;14306;49.942;11.570;2024-03-25T07:50:32;96705.97;;;11.73;100.00
1371;BME280;14306;49.942;11.570;2024-03-25T07:52:06;96706.66;;;11.61;100.00
1371;BME280;14306;49.942;11.570;2024-03-25T07:53:38;96707.50;;;11.45;100.00
1371;BME280;14306;49.942;11.570;2024-03-25T07:55:10;96709.66;;;11.31;100.00
1371;BME280;14306;49.942;11.570;2024-03-25T07:56:43;96713.22;;;11.14;100.00
1371;BME280;14306;49.942;11.570;2024-03-25T07:58:15;96706.84;;;10.64;100.00
1371;BME280;14306;49.942;11.570;2024-03-25T07:59:48;96715.22;;;10.80;100.00
1371;BME280;14306;49.942;11.570;2024-03-25T08:01:20;96714.78;;;10.78;100.00
1371;BME280;14306;49.942;11.570;2024-03-25T08:02:52;96716.22;;;10.67;100.00
1371;BME280;14306;49.942;11.570;2024-03-25T08:04:24;96715.31;;;10.29;100.00
1371;BME280;14306;49.942;11.570;2024-03-25T08:05:57;96707.81;;;9.44;100.00
1371;BME280;14306;49.942;11.570;2024-03-25T08:07:30;96715.38;;;9.64;100.00
1371;BME280;14306;49.942;11.570;2024-03-25T08:09:02;96723.06;;;9.96;100.00
1371;BME280;14306;49.942;11.570;2024-03-25T08:10:36;96710.47;;;9.83;100.00